Time;durP1;ratioP1;P1;durP2;ratioP2;P2;SDS_P1;SDS_P2;PMS_P1;PMS_P2;Temp;Humidity;BMP_temperature;BMP_pressure;BME280_temperature;BME280_humidity;BME280_pressure;Samples;Min_cycle;Max_cycle;Signal;HPM_P1;HPM_P2
2023/12/18 00:01:01;;;;;;;1.80;1.40;;;;;;;13.25;51.26;98876.38;105146;1257;62091;-43
2023/12/18 00:03:29;;;;;;;1.40;1.30;;;;;;;13.25;51.15;98868.94;105267;1261;75328;-42
2023/12/18 00:05:57;;;;;;;1.70;1.40;;;;;;;13.26;51.20;98869.73;105362;1261;65353;-41
2023/12/18 00:08:24;;;;;;;1.90;1.70;;;;;;;13.26;51.19;98866.29;105434;1259;72474;-41
2023/12/18 00:10:52;;;;;;;1.90;1.60;;;;;;;13.26;51.22;98862.30;105256;1262;62046;-42
2023/12/18 00:13:19;;;;;;;1.80;1.70;;;;;;;13.26;51.27;98859.45;105300;1259;62113;-42
2023/12/18 00:15:47;;;;;;;1.70;1.60;;;;;;;13.27;51.26;98847.83;105612;1261;75489;-42
2023/12/18 00:18:14;;;;;;;2.30;1.70;;;;;;;13.27;51.11;98848.70;105494;1259;66123;-42
2023/12/18 00:20:42;;;;;;;2.20;1.60;;;;;;;13.27;51.08;98852.40;105688;1259;72553;-42
2023/12/18 00:23:09;;;;;;;1.80;1.60;;;;;;;13.28;51.22;98856.55;105402;1261;62048;-42
2023/12/18 00:25:38;;;;;;;2.00;1.60;;;;;;;13.28;51.15;98855.26;105880;1259;62192;-42
2023/12/18 00:28:05;;;;;;;1.60;1.40;;;;;;;13.28;51.20;98862.41;105511;1261;74018;-41
2023/12/18 00:30:33;;;;;;;1.90;1.50;;;;;;;13.28;51.09;98857.30;105706;1261;64071;-41
2023/12/18 00:33:01;;;;;;;1.70;1.60;;;;;;;13.28;51.14;98856.00;105149;1259;72732;-41
2023/12/18 00:35:29;;;;;;;1.90;1.70;;;;;;;13.29;51.12;98855.29;105342;1259;62166;-42
2023/12/18 00:37:56;;;;;;;3.10;1.70;;;;;;;13.29;51.19;98857.11;105165;1259;62054;-42
2023/12/18 00:40:23;;;;;;;2.50;1.80;;;;;;;13.30;51.24;98852.70;105279;1261;75216;-42
2023/12/18 00:42:51;;;;;;;1.60;1.50;;;;;;;13.29;51.15;98844.84;105503;1259;66175;-41
2023/12/18 00:45:18;;;;;;;1.60;1.50;;;;;;;13.29;51.20;98842.15;105210;1261;73148;-42
2023/12/18 00:47:45;;;;;;;1.60;1.50;;;;;;;13.30;51.16;98841.02;105400;1261;62699;-41
2023/12/18 00:50:13;;;;;;;1.90;1.70;;;;;;;13.30;51.26;98844.19;105343;1261;62094;-42
2023/12/18 00:52:41;;;;;;;1.70;1.60;;;;;;;13.30;51.17;98844.89;105265;1261;75358;-42
2023/12/18 00:55:08;;;;;;;1.90;1.50;;;;;;;13.30;51.23;98837.67;105254;1261;65822;-42
2023/12/18 00:57:36;;;;;;;2.00;1.70;;;;;;;13.31;51.08;98842.84;105415;1259;72668;-42
2023/12/18 01:00:04;;;;;;;1.90;1.50;;;;;;;13.31;51.22;98837.23;105153;1261;62052;-43
2023/12/18 01:02:32;;;;;;;1.80;1.40;;;;;;;13.30;51.12;98831.38;105226;1262;61971;-41
2023/12/18 01:04:59;;;;;;;1.60;1.50;;;;;;;13.31;51.16;98831.70;105243;1262;75375;-42
2023/12/18 01:07:29;;;;;;;1.60;1.50;;;;;;;13.31;51.13;98821.89;105464;1259;66100;-42
2023/12/18 01:10:00;;;;;;;1.50;1.40;;;;;;;13.31;51.22;98819.73;105420;1261;72439;-42
2023/12/18 01:12:27;;;;;;;1.70;1.50;;;;;;;13.31;51.17;98817.91;105443;1261;62074;-42
2023/12/18 01:14:55;;;;;;;1.80;1.60;;;;;;;13.32;51.11;98809.19;105406;1259;62023;-42
2023/12/18 01:17:22;;;;;;;1.30;1.20;;;;;;;13.32;51.21;98806.94;105352;1262;75409;-42
2023/12/18 01:20:03;;;;;;;2.00;1.40;;;;;;;13.32;51.06;98807.52;105461;1261;65742;-42
2023/12/18 01:22:31;;;;;;;1.70;1.60;;;;;;;13.33;51.19;98797.62;105509;1261;72620;-42
2023/12/18 01:24:58;;;;;;;1.50;1.40;;;;;;;13.32;51.11;98790.46;105484;1261;62043;-42
2023/12/18 01:27:25;;;;;;;1.90;1.40;;;;;;;13.33;51.16;98784.33;105490;1262;62045;-42
2023/12/18 01:29:53;;;;;;;1.70;1.50;;;;;;;13.33;51.09;98781.42;105382;1263;75374;-42
2023/12/18 01:32:20;;;;;;;1.60;1.40;;;;;;;13.33;51.16;98778.33;105178;1259;66025;-42
2023/12/18 01:34:47;;;;;;;2.20;1.50;;;;;;;13.33;51.09;98772.73;105290;1259;72577;-42
2023/12/18 01:37:15;;;;;;;1.90;1.60;;;;;;;13.33;51.17;98764.98;105475;1261;62055;-42
2023/12/18 01:39:42;;;;;;;1.70;1.60;;;;;;;13.33;51.14;98757.29;105443;1259;62167;-42
2023/12/18 01:42:09;;;;;;;1.60;1.50;;;;;;;13.34;51.14;98759.01;105484;1258;75453;-42
2023/12/18 01:44:36;;;;;;;2.00;1.80;;;;;;;13.34;51.15;98759.17;105329;1261;65997;-42
2023/12/18 01:47:04;;;;;;;1.70;1.50;;;;;;;13.34;50.95;98743.52;105020;1259;72373;-42
2023/12/18 01:49:31;;;;;;;1.70;1.60;;;;;;;13.34;51.06;98739.58;105028;1261;62391;-42
2023/12/18 01:51:59;;;;;;;4.80;1.80;;;;;;;13.35;51.15;98742.33;105075;1261;62077;-42
2023/12/18 01:54:26;;;;;;;1.70;1.60;;;;;;;13.34;51.12;98747.06;105377;1262;75425;-42
2023/12/18 01:56:54;;;;;;;2.00;1.70;;;;;;;13.35;51.02;98745.50;105519;1271;66075;-42
2023/12/18 01:59:21;;;;;;;1.70;1.40;;;;;;;13.35;51.19;98737.11;105478;1257;72675;-41
2023/12/18 02:01:48;;;;;;;1.90;1.60;;;;;;;13.36;51.08;98731.55;105133;1263;62084;-43
2023/12/18 02:04:16;;;;;;;3.40;1.70;;;;;;;13.36;51.20;98730.10;105203;1259;62477;-41
2023/12/18 02:06:43;;;;;;;2.10;1.50;;;;;;;13.36;51.05;98737.20;105456;1262;75431;-41
2023/12/18 02:09:11;;;;;;;1.60;1.50;;;;;;;13.36;51.05;98730.52;105448;1257;66116;-41
2023/12/18 02:11:40;;;;;;;1.70;1.40;;;;;;;13.37;51.01;98724.00;105370;1262;72594;-43
2023/12/18 02:14:07;;;;;;;1.60;1.40;;;;;;;13.37;51.14;98718.61;105024;1264;62268;-43
2023/12/18 02:16:34;;;;;;;2.00;1.50;;;;;;;13.37;51.03;98715.02;105174;1261;62151;-42
2023/12/18 02:19:01;;;;;;;1.90;1.60;;;;;;;13.37;51.13;98716.57;105235;1260;75400;-41
2023/12/18 02:21:29;;;;;;;1.80;1.50;;;;;;;13.37;51.07;98716.51;105383;1262;66719;-42
2023/12/18 02:23:56;;;;;;;1.60;1.50;;;;;;;13.37;51.07;98722.42;105105;1259;72636;-42
2023/12/18 02:26:24;;;;;;;1.80;1.70;;;;;;;13.38;51.02;98723.60;105450;1264;62059;-42
2023/12/18 02:28:51;;;;;;;2.10;1.40;;;;;;;13.38;51.03;98720.27;105240;1264;62173;-41
2023/12/18 02:31:18;;;;;;;2.50;1.60;;;;;;;13.38;51.07;98717.14;105239;1257;75402;-43
2023/12/18 02:33:49;;;;;;;2.00;1.60;;;;;;;13.38;51.15;98713.31;105142;1262;66161;-42
2023/12/18 02:36:17;;;;;;;1.70;1.50;;;;;;;13.38;50.87;98712.55;105299;1262;70892;-43
2023/12/18 02:38:45;;;;;;;1.80;1.40;;;;;;;13.39;51.02;98712.66;105042;1265;62019;-42
2023/12/18 02:41:12;;;;;;;1.60;1.40;;;;;;;13.39;51.06;98712.13;105095;1261;62085;-41
2023/12/18 02:43:39;;;;;;;1.80;1.60;;;;;;;13.39;51.01;98711.27;105391;1259;75425;-41
2023/12/18 02:46:06;;;;;;;1.60;1.50;;;;;;;13.39;51.15;98708.14;105340;1264;66106;-43
2023/12/18 02:48:34;;;;;;;1.70;1.60;;;;;;;13.39;51.10;98704.38;105074;1259;72590;-43
2023/12/18 02:51:02;;;;;;;1.60;1.40;;;;;;;13.39;51.00;98697.59;105306;1264;62070;-43
2023/12/18 02:53:30;;;;;;;1.40;1.30;;;;;;;13.39;51.14;98698.77;105474;1257;62168;-43
2023/12/18 02:55:57;;;;;;;1.90;1.60;;;;;;;13.39;51.09;98696.94;105508;1264;75469;-43
2023/12/18 02:58:24;;;;;;;1.70;1.60;;;;;;;13.40;51.04;98703.29;105528;1261;65435;-43
2023/12/18 03:00:52;;;;;;;1.60;1.50;;;;;;;13.40;51.02;98700.59;105383;1259;73346;-43
2023/12/18 03:03:19;;;;;;;1.40;1.30;;;;;;;13.40;51.07;98690.09;105151;1261;62062;-43
2023/12/18 03:05:47;;;;;;;1.90;1.50;;;;;;;13.41;51.18;98687.56;105495;1262;62140;-43
2023/12/18 03:08:14;;;;;;;1.60;1.50;;;;;;;13.41;51.20;98683.35;105472;1259;75912;-43
2023/12/18 03:10:41;;;;;;;1.30;1.20;;;;;;;13.41;51.08;98678.24;105435;1261;65982;-43
2023/12/18 03:13:08;;;;;;;1.50;1.30;;;;;;;13.42;51.08;98676.73;105473;1262;72643;-42
2023/12/18 03:15:35;;;;;;;1.50;1.20;;;;;;;13.42;51.13;98671.77;105460;1271;62385;-42
2023/12/18 03:18:04;;;;;;;1.40;1.30;;;;;;;13.43;51.10;98669.34;105519;1258;62166;-42
2023/12/18 03:20:31;;;;;;;1.50;1.40;;;;;;;13.44;51.17;98664.09;105491;1263;73971;-42
2023/12/18 03:22:59;;;;;;;2.00;1.50;;;;;;;13.45;51.24;98656.61;105539;1263;65507;-42
2023/12/18 03:25:26;;;;;;;1.30;1.20;;;;;;;13.46;51.09;98651.68;105536;1264;72501;-41
2023/12/18 03:27:53;;;;;;;2.30;1.40;;;;;;;13.46;51.07;98656.33;105532;1271;62486;-41
2023/12/18 03:30:21;;;;;;;1.60;1.30;;;;;;;13.47;51.09;98656.30;105285;1257;62073;-43
2023/12/18 03:32:48;;;;;;;1.90;1.50;;;;;;;13.48;50.98;98644.28;105191;1263;75356;-43
2023/12/18 03:35:16;;;;;;;1.40;1.20;;;;;;;13.49;50.96;98638.80;105196;1262;65042;-42
2023/12/18 03:37:43;;;;;;;1.90;1.40;;;;;;;13.49;51.08;98630.76;105356;1257;72434;-41
2023/12/18 03:40:11;;;;;;;1.60;1.40;;;;;;;13.51;51.05;98632.52;105514;1261;62057;-42
2023/12/18 03:42:38;;;;;;;1.40;1.30;;;;;;;13.52;50.92;98634.81;105464;1264;62157;-42
2023/12/18 03:45:07;;;;;;;1.70;1.40;;;;;;;13.53;50.98;98632.73;105220;1264;75490;-42
2023/12/18 03:47:34;;;;;;;1.80;1.40;;;;;;;13.54;50.98;98625.62;105514;1261;66260;-42
2023/12/18 03:50:01;;;;;;;1.70;1.40;;;;;;;13.54;50.86;98617.60;105429;1257;73038;-42
2023/12/18 03:52:29;;;;;;;1.30;1.20;;;;;;;13.55;51.02;98617.74;105398;1263;62017;-42
2023/12/18 03:54:56;;;;;;;2.20;1.30;;;;;;;13.56;50.88;98625.27;105345;1264;62062;-42
2023/12/18 03:57:24;;;;;;;2.60;1.50;;;;;;;13.57;50.92;98624.05;105474;1258;75380;-42
2023/12/18 03:59:51;;;;;;;1.30;1.20;;;;;;;13.58;50.99;98624.11;105439;1261;66174;-41
2023/12/18 04:02:18;;;;;;;1.70;1.50;;;;;;;13.59;50.89;98626.45;105212;1258;72584;-43
2023/12/18 04:04:46;;;;;;;1.50;1.40;;;;;;;13.59;50.79;98627.52;105165;1262;62081;-42
2023/12/18 04:07:13;;;;;;;1.60;1.30;;;;;;;13.60;51.03;98628.00;105520;1258;62187;-42
2023/12/18 04:09:42;;;;;;;1.60;1.40;;;;;;;13.60;50.85;98629.50;105449;1265;75364;-42
2023/12/18 04:12:09;;;;;;;2.30;1.10;;;;;;;13.61;50.98;98624.70;105384;1261;64727;-44
2023/12/18 04:14:37;;;;;;;1.50;1.30;;;;;;;13.62;50.83;98627.65;105139;1263;72493;-43
2023/12/18 04:17:04;;;;;;;1.60;1.30;;;;;;;13.62;50.90;98628.61;105270;1264;62036;-43
2023/12/18 04:19:31;;;;;;;1.10;1.00;;;;;;;13.63;50.92;98637.27;105414;1262;62042;-43
2023/12/18 04:21:59;;;;;;;1.40;1.30;;;;;;;13.63;50.90;98640.13;105419;1263;75567;-43
2023/12/18 04:24:26;;;;;;;1.40;1.30;;;;;;;13.64;50.96;98640.86;105466;1262;65077;-43
2023/12/18 04:26:54;;;;;;;1.20;1.10;;;;;;;13.65;50.84;98647.14;105397;1263;72565;-43
2023/12/18 04:29:21;;;;;;;1.70;1.60;;;;;;;13.65;50.98;98655.38;105338;1264;62059;-41
2023/12/18 04:31:51;;;;;;;1.30;1.20;;;;;;;13.65;50.88;98660.70;105178;1261;62060;-42
2023/12/18 04:34:19;;;;;;;1.60;1.50;;;;;;;13.66;50.85;98675.80;104909;1263;75426;-43
2023/12/18 04:36:46;;;;;;;1.30;1.20;;;;;;;13.66;50.86;98662.98;108939;1257;65865;-42
2023/12/18 04:39:16;;;;;;;1.60;1.40;;;;;;;13.67;50.71;98649.73;108946;1257;72324;-42
2023/12/18 04:41:45;;;;;;;1.60;1.40;;;;;;;13.68;50.85;98654.02;106705;1257;62485;-42
2023/12/18 04:44:12;;;;;;;1.50;1.30;;;;;;;13.69;50.75;98654.55;105325;1258;62140;-42
2023/12/18 04:46:40;;;;;;;1.50;1.30;;;;;;;13.70;50.84;98652.86;105239;1263;75401;-42
2023/12/18 04:49:09;;;;;;;1.30;1.20;;;;;;;13.73;50.81;98649.67;108954;1257;66056;-42
2023/12/18 04:51:36;;;;;;;1.60;1.50;;;;;;;13.73;50.84;98649.76;108415;1257;71639;-43
2023/12/18 04:54:03;;;;;;;1.40;1.20;;;;;;;13.75;50.71;98651.94;105231;1264;62054;-42
2023/12/18 04:56:31;;;;;;;1.50;1.30;;;;;;;13.76;50.74;98654.98;105818;1258;62208;-42
2023/12/18 04:58:58;;;;;;;1.60;1.50;;;;;;;13.76;50.80;98648.94;105107;1266;75403;-41
2023/12/18 05:01:25;;;;;;;1.30;1.20;;;;;;;13.76;50.66;98653.20;105080;1261;65147;-42
2023/12/18 05:03:53;;;;;;;1.40;1.30;;;;;;;13.78;50.63;98658.19;105095;1258;72600;-42
2023/12/18 05:06:25;;;;;;;1.50;1.40;;;;;;;13.77;50.69;98661.16;105325;1263;62451;-42
2023/12/18 05:08:52;;;;;;;1.20;1.10;;;;;;;13.77;50.61;98667.63;105317;1262;62257;-42
2023/12/18 05:11:22;;;;;;;1.90;1.60;;;;;;;13.78;50.59;98674.13;105303;1263;75370;-42
2023/12/18 05:13:49;;;;;;;1.70;1.60;;;;;;;13.78;50.68;98678.77;105200;1262;66126;-42
2023/12/18 05:16:16;;;;;;;1.30;1.20;;;;;;;13.78;50.71;98672.45;105409;1257;72410;-41
2023/12/18 05:18:44;;;;;;;2.20;1.40;;;;;;;13.77;50.67;98672.41;105314;1262;62052;-41
2023/12/18 05:21:11;;;;;;;1.50;1.30;;;;;;;13.78;50.63;98677.42;105135;1257;62210;-41
2023/12/18 05:23:39;;;;;;;1.50;1.40;;;;;;;13.77;50.76;98678.98;105079;1263;75137;-41
2023/12/18 05:26:06;;;;;;;1.50;1.40;;;;;;;13.76;50.60;98677.27;105311;1261;65956;-41
2023/12/18 05:28:34;;;;;;;1.40;1.30;;;;;;;13.76;50.65;98682.01;105458;1258;72689;-41
2023/12/18 05:31:02;;;;;;;2.20;1.30;;;;;;;13.76;50.69;98675.98;105443;1262;62030;-41
2023/12/18 05:33:29;;;;;;;1.60;1.30;;;;;;;13.75;50.73;98685.73;105242;1258;62132;-42
2023/12/18 05:35:57;;;;;;;1.50;1.40;;;;;;;13.75;50.63;98688.88;105169;1258;75432;-42
2023/12/18 05:38:24;;;;;;;2.00;1.20;;;;;;;13.75;50.64;98692.16;105114;1264;66103;-43
2023/12/18 05:40:51;;;;;;;1.30;1.20;;;;;;;13.74;50.69;98692.59;105163;1258;72651;-41
2023/12/18 05:43:19;;;;;;;1.70;1.30;;;;;;;13.74;50.73;98686.51;105371;1264;62045;-42
2023/12/18 05:45:46;;;;;;;1.80;1.50;;;;;;;13.73;50.67;98691.24;105516;1258;62101;-42
2023/12/18 05:48:13;;;;;;;2.00;1.30;;;;;;;13.73;50.66;98691.16;105091;1261;75197;-42
2023/12/18 05:50:41;;;;;;;1.70;1.30;;;;;;;13.73;50.64;98692.52;105501;1263;66192;-43
2023/12/18 05:53:08;;;;;;;2.00;1.60;;;;;;;13.73;50.68;98691.22;105445;1258;72331;-42
2023/12/18 05:55:35;;;;;;;1.60;1.40;;;;;;;13.73;50.76;98691.76;105458;1262;62092;-42
2023/12/18 05:58:03;;;;;;;2.30;1.30;;;;;;;13.73;50.72;98693.14;105576;1260;62178;-42
2023/12/18 06:00:30;;;;;;;1.50;1.10;;;;;;;13.72;50.74;98694.56;105480;1261;75397;-41
2023/12/18 06:02:57;;;;;;;1.50;1.30;;;;;;;13.72;50.80;98694.73;105308;1263;63980;-41
2023/12/18 06:05:25;;;;;;;1.50;1.40;;;;;;;13.71;50.72;98695.91;105118;1258;72484;-42
2023/12/18 06:07:52;;;;;;;1.30;1.20;;;;;;;13.71;50.74;98699.85;105357;1262;62500;-41
2023/12/18 06:10:19;;;;;;;1.40;1.30;;;;;;;13.71;50.77;98701.67;105402;1262;62077;-41
2023/12/18 06:12:49;;;;;;;1.50;1.30;;;;;;;13.71;50.66;98703.30;105537;1264;75923;-41
2023/12/18 06:15:17;;;;;;;1.50;1.40;;;;;;;13.71;50.78;98707.06;105475;1257;66918;-41
2023/12/18 06:17:44;;;;;;;1.60;1.20;;;;;;;13.71;50.76;98707.50;105301;1258;72556;-43
2023/12/18 06:20:12;;;;;;;1.70;1.60;;;;;;;13.71;50.81;98711.97;105372;1264;62079;-43
2023/12/18 06:22:39;;;;;;;1.70;1.50;;;;;;;13.70;50.75;98711.61;105246;1257;62782;-42
2023/12/18 06:25:07;;;;;;;1.30;1.20;;;;;;;13.70;50.82;98712.63;105503;1257;75284;-42
2023/12/18 06:27:35;;;;;;;1.40;1.30;;;;;;;13.69;50.81;98714.96;105499;1263;65841;-42
2023/12/18 06:30:03;;;;;;;1.60;1.50;;;;;;;13.70;50.82;98717.59;105336;1258;72591;-43
2023/12/18 06:32:31;;;;;;;1.30;1.20;;;;;;;13.70;50.88;98718.67;105492;1259;62107;-42
2023/12/18 06:34:59;;;;;;;1.40;1.30;;;;;;;13.69;50.78;98726.05;105193;1258;62128;-42
2023/12/18 06:37:26;;;;;;;1.60;1.40;;;;;;;13.69;50.79;98723.02;105372;1261;75108;-42
2023/12/18 06:39:57;;;;;;;1.40;1.20;;;;;;;13.70;50.79;98729.22;105342;1261;66244;-42
2023/12/18 06:42:24;;;;;;;1.30;1.20;;;;;;;13.69;50.87;98726.16;105201;1264;72308;-42
2023/12/18 06:44:51;;;;;;;1.30;1.10;;;;;;;13.69;50.84;98731.11;105087;1264;61972;-42
2023/12/18 06:47:19;;;;;;;8.40;2.00;;;;;;;13.70;50.81;98733.59;105520;1257;62165;-41
2023/12/18 06:49:46;;;;;;;2.40;1.90;;;;;;;13.69;50.85;98728.47;105734;1262;75416;-43
2023/12/18 06:52:14;;;;;;;2.50;2.00;;;;;;;13.70;50.81;98731.05;105506;1257;65826;-42
2023/12/18 06:54:42;;;;;;;5.70;2.60;;;;;;;13.69;50.66;98736.29;105253;1261;72585;-43
2023/12/18 06:57:12;;;;;;;3.70;2.80;;;;;;;13.63;49.91;98740.51;105589;1258;62048;-40
2023/12/18 06:59:39;;;;;;;4.10;2.60;;;;;;;13.57;49.55;98746.70;105400;1257;250561;-41
2023/12/18 07:02:06;;;;;;;4.10;2.80;;;;;;;13.51;49.29;98747.48;105247;1256;74405;-41
2023/12/18 07:04:34;;;;;;;3.50;2.80;;;;;;;13.46;49.16;98749.86;105121;1261;66233;-41
2023/12/18 07:07:01;;;;;;;4.00;3.00;;;;;;;13.41;48.90;98753.42;105094;1257;72687;-40
2023/12/18 07:09:28;;;;;;;4.20;3.30;;;;;;;13.37;48.84;98759.19;105288;1261;62063;-41
2023/12/18 07:11:56;;;;;;;5.60;3.10;;;;;;;13.33;48.62;98763.59;105065;1261;62108;-42
2023/12/18 07:14:24;;;;;;;5.10;3.40;;;;;;;13.29;48.41;98763.12;105669;1261;75890;-41
2023/12/18 07:16:54;;;;;;;6.50;3.50;;;;;;;13.22;48.07;98760.52;105106;1261;66271;-42
2023/12/18 07:19:21;;;;;;;6.60;3.70;;;;;;;13.15;47.78;98761.56;105106;1258;71497;-41
2023/12/18 07:21:49;;;;;;;6.80;3.60;;;;;;;13.07;47.83;98759.14;104950;1263;62147;-39
2023/12/18 07:24:17;;;;;;;4.60;3.50;;;;;;;13.00;47.77;98762.48;104928;1257;62060;-39
2023/12/18 07:26:44;;;;;;;5.90;3.30;;;;;;;12.98;47.91;98763.09;105328;1258;75374;-40
2023/12/18 07:29:11;;;;;;;4.60;3.60;;;;;;;12.94;47.73;98761.25;105219;1259;65671;-39
2023/12/18 07:31:39;;;;;;;3.30;3.00;;;;;;;12.93;47.77;98767.77;105275;1258;72562;-39
2023/12/18 07:34:07;;;;;;;5.60;3.30;;;;;;;12.92;47.92;98766.66;105098;1261;62062;-39
2023/12/18 07:36:38;;;;;;;4.70;3.30;;;;;;;12.91;47.87;98766.61;105084;1257;62103;-40
2023/12/18 07:39:07;;;;;;;7.60;3.70;;;;;;;12.90;47.91;98765.98;105460;1258;76134;-41
2023/12/18 07:41:34;;;;;;;5.10;3.70;;;;;;;12.89;47.94;98763.14;105407;1257;65018;-39
2023/12/18 07:44:02;;;;;;;4.40;3.40;;;;;;;12.89;47.96;98760.23;105379;1261;71203;-38
2023/12/18 07:46:30;;;;;;;4.70;3.60;;;;;;;12.90;47.90;98761.95;105031;1261;62169;-39
2023/12/18 07:48:57;;;;;;;4.90;3.70;;;;;;;12.90;47.83;98762.59;105067;1258;62134;-40
2023/12/18 07:51:25;;;;;;;5.90;4.00;;;;;;;12.90;47.85;98760.02;105109;1261;75469;-39
2023/12/18 07:53:52;;;;;;;6.60;3.90;;;;;;;12.88;47.63;98752.50;105096;1261;66521;-39
2023/12/18 07:56:19;;;;;;;8.40;4.80;;;;;;;12.85;47.83;98753.39;105037;1257;73314;-38
2023/12/18 07:58:47;;;;;;;5.90;4.90;;;;;;;12.82;47.65;98754.73;105186;1261;62016;-37
2023/12/18 08:01:16;;;;;;;6.60;4.80;;;;;;;12.76;47.87;98756.14;104995;1257;62403;-37
2023/12/18 08:03:47;;;;;;;8.00;5.40;;;;;;;12.68;48.31;98752.73;105113;1261;75199;-37
2023/12/18 08:06:15;;;;;;;7.70;5.20;;;;;;;12.63;48.75;98759.71;105225;1264;65394;-38
2023/12/18 08:08:42;;;;;;;9.20;5.30;;;;;;;12.64;49.20;98763.36;105272;1259;72585;-36
2023/12/18 08:11:10;;;;;;;9.70;5.00;;;;;;;12.68;49.62;98761.06;105182;1261;62064;-39
2023/12/18 08:13:40;;;;;;;6.00;4.00;;;;;;;12.74;50.03;98763.79;104851;1257;62556;-38
2023/12/18 08:16:08;;;;;;;5.70;3.90;;;;;;;12.82;50.26;98767.10;105004;1261;75521;-35
2023/12/18 08:18:36;;;;;;;5.90;3.70;;;;;;;12.88;50.24;98769.13;105081;1260;66570;-39
2023/12/18 08:21:05;;;;;;;6.20;4.10;;;;;;;12.93;50.47;98769.55;105051;1261;71640;-39
2023/12/18 08:23:32;;;;;;;8.50;3.50;;;;;;;12.98;50.52;98765.73;106226;1260;62169;-38
2023/12/18 08:26:00;;;;;;;8.00;4.00;;;;;;;13.03;50.61;98765.18;104944;1258;62176;-39
2023/12/18 08:28:27;;;;;;;5.70;3.60;;;;;;;13.08;50.62;98765.10;105161;1257;75143;-38
2023/12/18 08:30:55;;;;;;;8.00;4.20;;;;;;;13.11;50.56;98763.66;105103;1257;66379;-36
2023/12/18 08:33:23;;;;;;;4.80;4.10;;;;;;;13.13;50.26;98762.30;104851;1258;73021;-38
2023/12/18 08:35:50;;;;;;;7.80;4.50;;;;;;;13.14;50.26;98759.17;105206;1261;62137;-40
2023/12/18 08:38:18;;;;;;;5.50;4.20;;;;;;;13.16;50.18;98756.89;105131;1261;62126;-38
2023/12/18 08:40:45;;;;;;;6.60;4.30;;;;;;;13.15;49.76;98748.83;105147;1258;75894;-36
2023/12/18 08:43:13;;;;;;;5.40;4.10;;;;;;;13.10;49.34;98752.06;105064;1261;65958;-37
2023/12/18 08:45:40;;;;;;;7.50;4.70;;;;;;;13.05;49.41;98748.12;105069;1257;73054;-36
2023/12/18 08:48:07;;;;;;;8.80;5.10;;;;;;;13.00;49.18;98752.03;105135;1261;62085;-36
2023/12/18 08:50:35;;;;;;;5.80;4.70;;;;;;;12.97;49.38;98746.11;104988;1257;62049;-38
2023/12/18 08:53:03;;;;;;;5.80;4.30;;;;;;;12.97;49.65;98753.48;105121;1260;75897;-37
2023/12/18 08:55:31;;;;;;;6.10;4.10;;;;;;;12.98;49.80;98748.89;105722;1260;65741;-37
2023/12/18 08:57:58;;;;;;;6.60;4.00;;;;;;;13.00;50.29;98753.08;107423;1257;72516;-38
2023/12/18 09:00:26;;;;;;;6.70;3.60;;;;;;;13.01;50.47;98752.79;105668;1263;63448;-37
2023/12/18 09:02:53;;;;;;;5.60;3.50;;;;;;;13.03;50.66;98747.00;105197;1258;62833;-37
2023/12/18 09:05:20;;;;;;;4.70;3.40;;;;;;;13.07;50.74;98745.38;105925;1256;75415;-37
2023/12/18 09:07:49;;;;;;;6.20;3.70;;;;;;;13.08;50.79;98750.38;104945;1259;67342;-39
2023/12/18 09:10:22;;;;;;;6.50;3.80;;;;;;;13.10;50.77;98748.63;105381;1257;73417;-37
2023/12/18 09:12:52;;;;;;;6.20;3.60;;;;;;;13.12;50.81;98748.16;105034;1261;62050;-37
2023/12/18 09:15:21;;;;;;;5.60;3.40;;;;;;;13.14;50.88;98743.08;105168;1261;62074;-37
2023/12/18 09:17:50;;;;;;;4.90;3.40;;;;;;;13.15;50.94;98744.79;105149;1263;75263;-38
2023/12/18 09:20:19;;;;;;;10.40;3.80;;;;;;;13.17;50.89;98741.80;104884;1262;64825;-39
2023/12/18 09:22:48;;;;;;;4.50;3.10;;;;;;;13.18;51.07;98740.19;106732;1257;74033;-40
2023/12/18 09:25:17;;;;;;;4.10;3.20;;;;;;;13.20;51.14;98738.32;107404;1257;61919;-41
2023/12/18 09:27:44;;;;;;;6.60;3.30;;;;;;;13.21;51.04;98736.27;106591;1257;61912;-41
2023/12/18 09:30:13;;;;;;;4.00;3.50;;;;;;;13.23;51.12;98734.20;105199;1259;75377;-40
2023/12/18 09:32:40;;;;;;;6.60;3.40;;;;;;;13.24;51.24;98726.96;106054;1257;66009;-40
2023/12/18 09:35:08;;;;;;;4.70;3.40;;;;;;;13.25;51.26;98728.41;105311;1257;73609;-42
2023/12/18 09:37:36;;;;;;;4.40;3.40;;;;;;;13.25;51.25;98728.02;105061;1257;62021;-40
2023/12/18 09:40:07;;;;;;;5.30;3.60;;;;;;;13.25;51.28;98724.20;105035;1261;62095;-39
2023/12/18 09:42:34;;;;;;;5.80;3.70;;;;;;;13.26;51.36;98725.77;104961;1258;76245;-41
2023/12/18 09:45:02;;;;;;;5.30;3.30;;;;;;;13.26;51.31;98724.02;105116;1261;65894;-39
2023/12/18 09:47:30;;;;;;;5.40;3.40;;;;;;;13.27;51.49;98718.75;105816;1257;73021;-39
2023/12/18 09:49:58;;;;;;;4.70;3.40;;;;;;;13.27;51.56;98722.52;105212;1261;62051;-39
2023/12/18 09:52:25;;;;;;;4.30;3.10;;;;;;;13.28;51.64;98720.52;105099;1258;62121;-38
2023/12/18 09:54:53;;;;;;;5.60;3.60;;;;;;;13.29;51.71;98719.86;105637;1261;75427;-39
2023/12/18 09:57:21;;;;;;;5.90;3.30;;;;;;;13.29;51.53;98725.23;105232;1261;66332;-40
2023/12/18 09:59:48;;;;;;;3.90;2.90;;;;;;;13.30;51.70;98724.25;104855;1258;73476;-39
2023/12/18 10:02:16;;;;;;;4.00;3.20;;;;;;;13.31;51.62;98727.23;105308;1261;62055;-39
2023/12/18 10:04:43;;;;;;;5.00;3.30;;;;;;;13.32;51.62;98726.54;105245;1262;62057;-40
2023/12/18 10:07:11;;;;;;;4.30;3.40;;;;;;;13.32;51.57;98724.77;105500;1257;75137;-40
2023/12/18 10:09:38;;;;;;;4.80;3.00;;;;;;;13.33;51.56;98722.70;105175;1260;66658;-39
2023/12/18 10:12:07;;;;;;;4.80;3.40;;;;;;;13.34;51.66;98726.13;105179;1258;73490;-39
2023/12/18 10:14:34;;;;;;;3.90;3.20;;;;;;;13.34;51.48;98724.69;106266;1257;62301;-39
2023/12/18 10:17:01;;;;;;;6.30;3.10;;;;;;;13.34;51.55;98729.90;105352;1259;62066;-39
2023/12/18 10:19:29;;;;;;;5.30;3.40;;;;;;;13.35;51.69;98727.42;105321;1257;75253;-39
2023/12/18 10:21:57;;;;;;;11.00;3.10;;;;;;;13.35;51.75;98735.17;104908;1261;66626;-40
2023/12/18 10:24:25;;;;;;;6.00;3.20;;;;;;;13.35;51.90;98734.20;105066;1259;72636;-40
2023/12/18 10:26:53;;;;;;;4.70;3.00;;;;;;;13.35;51.97;98735.23;105237;1261;62117;-39
2023/12/18 10:29:20;;;;;;;4.50;3.10;;;;;;;13.35;51.95;98730.96;105145;1257;62164;-40
2023/12/18 10:31:47;;;;;;;5.60;3.00;;;;;;;13.36;52.01;98726.27;105212;1259;75349;-40
2023/12/18 10:34:17;;;;;;;4.40;3.00;;;;;;;13.36;51.94;98721.91;105100;1260;65377;-39
2023/12/18 10:36:44;;;;;;;5.50;3.00;;;;;;;13.37;52.03;98715.88;104980;1259;72676;-41
2023/12/18 10:39:13;;;;;;;8.90;3.10;;;;;;;13.37;52.07;98714.03;104961;1257;62033;-41
2023/12/18 10:41:40;;;;;;;5.20;2.90;;;;;;;13.37;52.10;98707.52;105145;1263;62146;-39
2023/12/18 10:44:08;;;;;;;3.60;2.60;;;;;;;13.38;52.41;98711.48;104991;1257;76718;-39
2023/12/18 10:46:36;;;;;;;4.90;2.70;;;;;;;13.39;52.41;98718.80;105208;1257;65954;-41
2023/12/18 10:49:03;;;;;;;4.20;2.90;;;;;;;13.39;52.40;98716.86;104918;1257;72914;-38
2023/12/18 10:51:33;;;;;;;3.90;3.00;;;;;;;13.39;52.49;98713.80;105107;1264;62109;-36
2023/12/18 10:54:02;;;;;;;4.40;3.00;;;;;;;13.41;52.57;98710.42;105027;1259;62128;-38
2023/12/18 10:56:30;;;;;;;4.00;2.80;;;;;;;13.43;52.89;98716.80;105382;1257;76625;-38
2023/12/18 10:58:59;;;;;;;5.70;2.80;;;;;;;13.45;53.15;98717.63;105098;1264;67072;-39
2023/12/18 11:01:26;;;;;;;3.30;2.60;;;;;;;13.47;53.34;98719.81;105108;1258;73261;-36
2023/12/18 11:03:54;;;;;;;4.40;2.90;;;;;;;13.50;53.40;98716.59;104802;1264;62104;-36
2023/12/18 11:06:22;;;;;;;3.30;2.50;;;;;;;13.51;53.30;98716.52;108007;1257;62444;-37
2023/12/18 11:08:50;;;;;;;3.00;2.20;;;;;;;13.53;53.57;98713.86;104740;1261;76548;-38
2023/12/18 11:11:18;;;;;;;4.20;2.50;;;;;;;13.56;53.45;98712.95;105172;1257;66259;-38
2023/12/18 11:14:07;;;;;;;6.00;2.50;;;;;;;13.58;53.67;98710.34;105036;1258;73685;-39
2023/12/18 11:17:07;;;;;;;4.10;2.60;;;;;;;13.60;53.67;98709.39;105270;1258;62046;-38
2023/12/18 11:19:43;;;;;;;4.10;2.50;;;;;;;13.62;53.61;98711.67;104789;1258;62426;-38
2023/12/18 11:22:11;;;;;;;6.50;3.10;;;;;;;13.64;53.74;98708.91;105023;1258;75489;-36
2023/12/18 11:24:39;;;;;;;4.40;2.40;;;;;;;13.65;53.56;98709.75;105071;1258;66282;-40
2023/12/18 11:27:06;;;;;;;3.90;2.50;;;;;;;13.66;53.64;98711.07;105434;1258;73326;-42